Time;durP1;ratioP1;P1;durP2;ratioP2;P2;SDS_P1;SDS_P2;PMS_P1;PMS_P2;Temp;Humidity;BMP_temperature;BMP_pressure;BME280_temperature;BME280_humidity;BME280_pressure;Samples;Min_cycle;Max_cycle;Signal;HPM_P1;HPM_P2
2021/12/20 00:00:59;;;;;;;27.77;5.45;;;5.90;99.90;;;;;;5073337;28;20480;-76
2021/12/20 00:03:25;;;;;;;29.25;5.30;;;5.90;99.90;;;;;;5073450;28;20048;-76
2021/12/20 00:05:51;;;;;;;23.80;3.55;;;5.80;99.90;;;;;;5054704;28;20048;-76
2021/12/20 00:08:17;;;;;;;38.33;6.70;;;5.80;99.90;;;;;;5054813;28;20047;-76
2021/12/20 00:10:43;;;;;;;39.78;5.32;;;5.70;99.90;;;;;;5055611;28;20131;-76
2021/12/20 00:13:09;;;;;;;27.25;3.83;;;5.80;99.90;;;;;;5072422;28;20492;-76
2021/12/20 00:15:35;;;;;;;32.55;4.85;;;5.60;99.90;;;;;;5055333;28;20094;-76
2021/12/20 00:18:01;;;;;;;32.60;5.38;;;5.60;99.90;;;;;;5051711;28;20059;-76
2021/12/20 00:20:26;;;;;;;20.92;4.40;;;5.60;99.90;;;;;;5034595;28;20049;-76
2021/12/20 00:22:52;;;;;;;26.27;4.75;;;5.50;99.90;;;;;;5067073;28;20048;-76
2021/12/20 00:25:18;;;;;;;23.40;4.47;;;5.50;99.90;;;;;;5073106;28;20040;-76
2021/12/20 00:27:44;;;;;;;36.67;4.45;;;5.50;99.90;;;;;;5054334;28;20120;-76
2021/12/20 00:30:11;;;;;;;30.00;5.00;;;5.50;99.90;;;;;;5055373;28;20400;-76
2021/12/20 00:32:38;;;;;;;22.02;3.28;;;5.50;99.90;;;;;;5073118;28;20036;-76
2021/12/20 00:35:06;;;;;;;21.20;3.80;;;5.50;99.90;;;;;;5054340;28;20056;-76
2021/12/20 00:40:21;;;;;;;27.00;3.65;;;5.50;99.90;;;;;;5055024;28;20128;-76
2021/12/20 00:43:07;;;;;;;27.80;4.10;;;5.60;99.90;;;;;;5072356;28;20052;-76
2021/12/20 00:45:35;;;;;;;25.25;3.97;;;5.60;99.90;;;;;;5055267;28;20059;-76
2021/12/20 00:48:02;;;;;;;27.33;4.53;;;5.70;99.90;;;;;;5054262;28;20131;-76
2021/12/20 00:50:28;;;;;;;26.70;4.43;;;5.70;99.90;;;;;;5073097;28;20423;-76
2021/12/20 00:52:55;;;;;;;25.52;3.90;;;5.70;99.90;;;;;;5072744;28;20591;-76
2021/12/20 00:55:23;;;;;;;18.50;2.80;;;5.70;99.90;;;;;;5054168;28;20492;-76
2021/12/20 00:57:50;;;;;;;22.35;3.45;;;5.70;99.90;;;;;;5058315;28;20399;-76
2021/12/20 01:00:22;;;;;;;22.95;5.45;;;5.70;99.90;;;;;;5058609;28;20048;-76
2021/12/20 01:02:49;;;;;;;23.70;3.63;;;5.70;99.90;;;;;;5075931;28;20051;-75
2021/12/20 01:05:15;;;;;;;23.55;2.92;;;5.70;99.90;;;;;;5058702;28;20090;-76
2021/12/20 01:07:41;;;;;;;25.00;3.60;;;5.70;99.90;;;;;;5076198;28;20036;-76
2021/12/20 01:10:09;;;;;;;19.80;3.03;;;5.70;99.90;;;;;;5057495;28;20048;-75
2021/12/20 01:12:50;;;;;;;22.15;3.40;;;5.70;99.90;;;;;;5058611;28;20101;-76
2021/12/20 01:15:20;;;;;;;21.02;3.53;;;5.70;99.90;;;;;;5077037;28;20049;-76
2021/12/20 01:17:46;;;;;;;16.27;2.97;;;5.70;99.90;;;;;;5053934;28;20056;-76
2021/12/20 01:20:13;;;;;;;16.67;2.78;;;5.70;99.90;;;;;;5068174;28;20217;-76
2021/12/20 01:22:44;;;;;;;23.05;3.42;;;5.80;99.90;;;;;;5058269;28;20044;-76
2021/12/20 01:25:11;;;;;;;23.02;2.88;;;5.80;99.90;;;;;;5057686;28;20127;-75
2021/12/20 01:27:37;;;;;;;17.95;2.50;;;5.80;99.90;;;;;;5041299;28;20048;-76
2021/12/20 01:30:05;;;;;;;15.77;3.45;;;5.80;99.90;;;;;;5056642;28;20159;-76
2021/12/20 01:32:31;;;;;;;16.63;3.50;;;5.80;99.90;;;;;;5076323;28;20059;-76
2021/12/20 01:34:57;;;;;;;17.45;3.17;;;5.90;99.90;;;;;;5057765;28;20048;-76
2021/12/20 01:37:22;;;;;;;18.73;2.75;;;6.00;99.90;;;;;;5074837;28;20044;-76
2021/12/20 01:39:48;;;;;;;17.90;2.88;;;6.00;99.90;;;;;;5075604;28;20400;-76
2021/12/20 01:42:18;;;;;;;13.85;2.75;;;6.00;99.90;;;;;;5057722;28;20045;-76
2021/12/20 01:44:45;;;;;;;14.40;2.92;;;6.00;99.90;;;;;;5056980;28;20056;-76
2021/12/20 01:47:12;;;;;;;20.23;3.25;;;6.00;99.90;;;;;;5057051;28;20043;-76
2021/12/20 01:49:51;;;;;;;15.40;2.63;;;6.10;99.90;;;;;;5058154;28;20064;-76
2021/12/20 01:52:20;;;;;;;13.10;2.25;;;6.10;99.90;;;;;;5056999;28;20076;-76
2021/12/20 01:54:46;;;;;;;11.63;1.90;;;6.10;99.90;;;;;;5057221;28;20082;-76
2021/12/20 01:57:12;;;;;;;16.63;3.42;;;6.20;99.90;;;;;;5057477;28;20048;-76
2021/12/20 01:59:42;;;;;;;10.45;2.95;;;6.20;99.90;;;;;;5056909;28;20049;-76
2021/12/20 02:02:08;;;;;;;13.82;2.70;;;6.30;99.90;;;;;;5057849;28;20089;-76
2021/12/20 02:04:45;;;;;;;10.55;1.63;;;6.30;99.90;;;;;;5057136;28;20563;-76
2021/12/20 02:07:33;;;;;;;13.93;2.47;;;6.30;99.90;;;;;;5055934;28;20127;-76
2021/12/20 02:09:59;;;;;;;16.05;2.10;;;6.30;99.90;;;;;;5057494;28;20049;-76
2021/12/20 02:12:25;;;;;;;19.83;3.20;;;6.30;99.90;;;;;;5056799;28;20189;-76
2021/12/20 02:14:50;;;;;;;19.08;2.70;;;6.30;99.90;;;;;;5053302;28;20082;-76
2021/12/20 02:17:16;;;;;;;14.60;2.45;;;6.30;99.90;;;;;;5054957;28;20104;-76
2021/12/20 02:19:42;;;;;;;17.50;2.33;;;6.30;99.90;;;;;;5036501;28;20072;-75
2021/12/20 02:22:08;;;;;;;14.07;2.30;;;6.30;99.90;;;;;;5043057;28;20374;-76
2021/12/20 02:24:33;;;;;;;23.85;3.25;;;6.30;99.90;;;;;;5054120;28;20380;-76
2021/12/20 02:26:59;;;;;;;19.25;3.60;;;6.20;99.90;;;;;;5054293;28;20491;-76
2021/12/20 02:29:42;;;;;;;17.33;2.90;;;6.30;99.90;;;;;;5061209;28;20041;-76
2021/12/20 02:37:36;;;;;;;14.55;3.00;;;6.20;99.90;;;;;;5056768;28;20476;-76
2021/12/20 02:40:03;;;;;;;14.18;2.40;;;6.10;99.90;;;;;;5056625;28;20109;-76
2021/12/20 02:42:38;;;;;;;15.60;2.42;;;6.10;99.90;;;;;;5055986;28;20052;-76
2021/12/20 02:47:36;;;;;;;16.85;3.55;;;6.10;99.90;;;;;;5073565;28;20055;-76
2021/12/20 02:50:02;;;;;;;10.82;1.92;;;6.10;99.90;;;;;;5074679;28;20048;-76
2021/12/20 02:52:28;;;;;;;12.75;2.90;;;6.20;99.90;;;;;;5056106;28;20044;-76
2021/12/20 02:54:54;;;;;;;12.45;2.47;;;6.20;99.90;;;;;;5055647;28;20055;-76
2021/12/20 02:57:20;;;;;;;13.05;2.85;;;6.20;99.90;;;;;;5074522;28;20497;-76
2021/12/20 02:59:46;;;;;;;13.18;2.03;;;6.10;99.90;;;;;;5056325;28;20520;-76
2021/12/20 03:02:11;;;;;;;15.35;2.42;;;6.10;99.90;;;;;;5073475;28;20094;-76
2021/12/20 03:04:38;;;;;;;13.50;2.30;;;6.20;99.90;;;;;;5056262;28;20484;-75
2021/12/20 03:07:12;;;;;;;14.90;2.20;;;6.10;99.90;;;;;;5073973;28;20041;-75
2021/12/20 03:09:42;;;;;;;21.67;2.70;;;6.10;99.90;;;;;;5055688;28;20125;-76
2021/12/20 03:12:10;;;;;;;14.55;2.60;;;6.10;99.90;;;;;;5056118;28;20045;-75
2021/12/20 03:14:42;;;;;;;14.18;2.25;;;6.20;99.90;;;;;;5056293;28;20464;-76
2021/12/20 03:17:09;;;;;;;11.95;2.22;;;6.20;99.90;;;;;;5055086;28;20060;-76
2021/12/20 03:19:34;;;;;;;13.57;2.35;;;6.20;99.90;;;;;;5055713;28;20052;-76
2021/12/20 03:22:01;;;;;;;17.35;2.00;;;6.20;99.90;;;;;;5073621;28;20055;-76
2021/12/20 03:24:27;;;;;;;15.00;2.33;;;6.30;99.90;;;;;;5055521;28;20087;-76
2021/12/20 03:26:53;;;;;;;11.07;3.00;;;6.30;99.90;;;;;;5074009;28;20041;-76
2021/12/20 03:29:19;;;;;;;19.42;3.47;;;6.30;99.90;;;;;;5073663;28;20545;-75
2021/12/20 03:31:45;;;;;;;12.98;2.35;;;6.20;99.90;;;;;;5055167;28;20042;-75
2021/12/20 03:34:11;;;;;;;23.60;3.65;;;6.20;99.90;;;;;;5073750;28;20492;-76
2021/12/20 03:36:37;;;;;;;14.45;3.05;;;6.10;99.90;;;;;;5054830;28;20055;-75
2021/12/20 03:39:06;;;;;;;21.00;2.47;;;6.10;99.90;;;;;;5039364;28;20048;-76
2021/12/20 03:41:32;;;;;;;12.77;2.33;;;6.10;99.90;;;;;;5055126;28;20049;-76
2021/12/20 03:43:58;;;;;;;9.38;1.63;;;6.00;99.90;;;;;;5054855;28;20070;-75
2021/12/20 03:46:24;;;;;;;18.15;2.17;;;6.00;99.90;;;;;;5039404;28;20040;-75
2021/12/20 03:48:50;;;;;;;11.85;1.88;;;6.00;99.90;;;;;;5039072;28;20388;-76
2021/12/20 03:51:16;;;;;;;15.98;2.97;;;6.00;99.90;;;;;;5037980;28;20051;-75
2021/12/20 03:53:42;;;;;;;26.05;4.90;;;5.90;99.90;;;;;;5073089;28;20040;-75
2021/12/20 03:56:08;;;;;;;10.18;2.25;;;5.90;99.90;;;;;;5055562;28;20131;-75
2021/12/20 03:58:34;;;;;;;15.30;2.90;;;5.80;99.90;;;;;;5054593;28;20044;-76
2021/12/20 04:01:05;;;;;;;13.60;1.63;;;5.80;99.90;;;;;;5073596;28;20040;-76
2021/12/20 04:03:34;;;;;;;13.65;2.72;;;5.80;99.90;;;;;;5073474;28;20036;-76
2021/12/20 04:06:00;;;;;;;16.35;2.40;;;5.80;99.90;;;;;;5072728;28;20148;-76
2021/12/20 04:08:26;;;;;;;11.65;1.77;;;5.80;99.90;;;;;;5073164;28;20037;-76
2021/12/20 04:10:52;;;;;;;16.95;2.53;;;5.80;99.90;;;;;;5073434;28;20047;-76
2021/12/20 04:13:18;;;;;;;14.15;2.35;;;5.80;99.90;;;;;;5050878;28;20052;-76
2021/12/20 04:15:43;;;;;;;19.55;2.40;;;5.80;99.90;;;;;;5053154;28;20041;-76
2021/12/20 04:18:09;;;;;;;10.85;1.92;;;5.80;99.90;;;;;;5052976;28;20132;-75
2021/12/20 04:20:35;;;;;;;10.88;2.30;;;5.70;99.90;;;;;;5052461;28;20045;-76
2021/12/20 04:23:00;;;;;;;10.27;1.88;;;5.70;99.90;;;;;;5069242;28;20099;-76
2021/12/20 04:25:26;;;;;;;19.30;3.58;;;5.70;99.90;;;;;;5055292;28;20040;-76
2021/12/20 04:27:53;;;;;;;13.98;1.95;;;5.60;99.90;;;;;;5054477;28;20078;-75
2021/12/20 04:30:18;;;;;;;15.48;2.22;;;5.60;99.90;;;;;;5038466;28;20048;-75
2021/12/20 04:32:46;;;;;;;13.15;1.85;;;5.50;99.90;;;;;;5058746;28;20369;-75
2021/12/20 04:35:14;;;;;;;14.63;2.00;;;5.50;99.90;;;;;;5058459;28;20102;-76
2021/12/20 04:37:43;;;;;;;12.07;1.77;;;5.40;99.90;;;;;;5059043;28;20062;-76
2021/12/20 04:40:14;;;;;;;15.85;2.30;;;5.40;99.90;;;;;;5076239;28;20059;-76
2021/12/20 04:42:40;;;;;;;19.20;2.25;;;5.30;99.90;;;;;;5076718;28;20036;-76
2021/12/20 04:45:06;;;;;;;17.25;2.80;;;5.30;99.90;;;;;;5058723;28;20377;-75
2021/12/20 04:47:32;;;;;;;19.63;2.50;;;5.40;99.90;;;;;;5058082;28;20044;-76
2021/12/20 04:49:59;;;;;;;16.52;2.88;;;5.40;99.90;;;;;;5076965;28;20040;-76
2021/12/20 04:52:25;;;;;;;17.85;2.25;;;5.40;99.90;;;;;;5058438;28;20041;-76
2021/12/20 04:54:50;;;;;;;12.65;1.98;;;5.40;99.90;;;;;;5041056;28;20122;-76
2021/12/20 04:57:17;;;;;;;11.73;2.08;;;5.40;99.90;;;;;;5058965;28;20061;-75
2021/12/20 04:59:43;;;;;;;10.27;1.40;;;5.30;99.90;;;;;;5058674;28;20051;-75
2021/12/20 05:02:09;;;;;;;11.18;2.35;;;5.30;99.90;;;;;;5075796;28;20052;-75
2021/12/20 05:04:35;;;;;;;11.38;1.88;;;5.30;99.90;;;;;;5058686;28;20047;-75
2021/12/20 05:07:02;;;;;;;20.70;3.97;;;5.30;99.90;;;;;;5058229;28;20071;-75
2021/12/20 05:09:35;;;;;;;15.35;1.88;;;5.30;99.90;;;;;;5057676;28;20053;-75
2021/12/20 05:12:10;;;;;;;20.77;3.15;;;5.30;99.90;;;;;;5058304;28;20051;-75
2021/12/20 05:14:36;;;;;;;13.60;1.80;;;5.30;99.90;;;;;;5076582;28;20044;-75
2021/12/20 05:17:02;;;;;;;11.75;1.88;;;5.30;99.90;;;;;;5054285;28;20076;-75
2021/12/20 05:19:28;;;;;;;12.48;3.58;;;5.30;99.90;;;;;;5056397;28;20053;-75
2021/12/20 05:21:56;;;;;;;15.82;1.92;;;5.30;99.90;;;;;;5054724;28;20049;-75
2021/12/20 05:24:22;;;;;;;10.05;1.48;;;5.30;99.90;;;;;;5055156;28;20072;-75
2021/12/20 05:26:47;;;;;;;10.85;1.70;;;5.20;99.90;;;;;;5054865;28;20045;-75
2021/12/20 05:29:13;;;;;;;14.93;1.98;;;5.20;99.90;;;;;;5054267;28;20114;-75
2021/12/20 05:31:39;;;;;;;11.00;1.60;;;5.20;99.90;;;;;;5054470;28;20048;-75
2021/12/20 05:34:05;;;;;;;10.25;1.48;;;5.20;99.90;;;;;;5054832;28;20056;-75
2021/12/20 05:36:31;;;;;;;18.52;2.50;;;5.20;99.90;;;;;;5053642;28;20037;-75
2021/12/20 05:38:57;;;;;;;14.95;2.53;;;5.20;99.90;;;;;;5056021;28;20093;-76
2021/12/20 05:41:22;;;;;;;14.00;2.03;;;5.20;99.90;;;;;;5054236;28;20041;-75
2021/12/20 05:43:49;;;;;;;11.25;1.58;;;5.20;99.90;;;;;;5053986;28;20194;-75
2021/12/20 05:46:15;;;;;;;18.85;2.85;;;5.20;99.90;;;;;;5055973;28;20037;-75
2021/12/20 05:48:41;;;;;;;9.82;2.70;;;5.20;99.90;;;;;;5054467;28;20127;-75
2021/12/20 05:51:07;;;;;;;12.35;1.85;;;5.20;99.90;;;;;;5036888;28;20183;-75
2021/12/20 05:53:33;;;;;;;9.60;1.40;;;5.20;99.90;;;;;;5038927;28;20095;-75
2021/12/20 05:55:58;;;;;;;16.90;3.08;;;5.20;99.90;;;;;;5054440;28;20091;-75
2021/12/20 05:58:24;;;;;;;12.27;1.77;;;5.20;99.90;;;;;;5053416;28;20045;-76
2021/12/20 06:00:50;;;;;;;12.00;1.73;;;5.20;99.90;;;;;;5055580;28;20125;-75
2021/12/20 06:03:16;;;;;;;9.55;1.80;;;5.10;99.90;;;;;;5055408;28;20037;-75
2021/12/20 06:05:42;;;;;;;15.77;1.77;;;5.20;99.90;;;;;;5053251;28;20393;-75
2021/12/20 06:08:09;;;;;;;13.02;2.13;;;5.20;99.90;;;;;;5055290;28;20080;-75
2021/12/20 06:10:35;;;;;;;13.48;2.00;;;5.20;99.90;;;;;;5054334;28;20052;-75
2021/12/20 06:13:04;;;;;;;12.05;1.70;;;5.20;99.90;;;;;;5054638;28;20037;-75
2021/12/20 06:15:31;;;;;;;11.45;2.03;;;5.20;99.90;;;;;;5055422;28;20442;-75
2021/12/20 06:17:57;;;;;;;10.50;2.20;;;5.10;99.90;;;;;;5072765;28;20087;-76
2021/12/20 06:20:23;;;;;;;16.70;1.98;;;5.10;99.90;;;;;;5056322;28;20106;-75
2021/12/20 06:22:49;;;;;;;11.48;1.65;;;5.10;99.90;;;;;;5053478;28;20489;-75
2021/12/20 06:25:16;;;;;;;7.03;1.27;;;5.10;99.90;;;;;;5037204;28;20126;-76
2021/12/20 06:27:41;;;;;;;10.18;1.52;;;5.10;99.90;;;;;;5036382;28;20115;-77
2021/12/20 06:30:09;;;;;;;8.95;1.50;;;5.10;99.90;;;;;;5037370;28;20052;-77
2021/12/20 06:32:36;;;;;;;17.23;1.75;;;5.10;99.90;;;;;;5048056;28;20498;-76
2021/12/20 06:35:03;;;;;;;13.10;1.67;;;5.00;99.90;;;;;;5057005;28;20373;-77
2021/12/20 06:37:31;;;;;;;9.77;1.55;;;5.00;99.90;;;;;;5056753;28;20408;-76
2021/12/20 06:39:56;;;;;;;4.13;1.38;;;4.90;99.90;;;;;;5056010;28;20051;-76
2021/12/20 06:42:22;;;;;;;10.30;2.10;;;4.90;99.90;;;;;;5053209;28;20048;-76
2021/12/20 06:44:48;;;;;;;13.95;3.55;;;4.80;99.90;;;;;;5036864;28;20045;-76
2021/12/20 06:47:15;;;;;;;7.55;1.90;;;4.80;99.90;;;;;;5056332;28;20045;-77
2021/12/20 06:49:41;;;;;;;9.38;1.85;;;4.70;99.90;;;;;;5057110;28;20045;-77
2021/12/20 06:52:07;;;;;;;9.20;1.40;;;4.60;99.90;;;;;;5056194;28;20123;-76
2021/12/20 06:54:32;;;;;;;18.60;2.55;;;4.60;99.90;;;;;;5073231;28;20115;-77
2021/12/20 06:56:58;;;;;;;5.80;1.20;;;4.50;99.90;;;;;;5056698;28;20530;-77
2021/12/20 06:59:24;;;;;;;5.22;1.23;;;4.50;99.90;;;;;;5056602;28;20435;-76
2021/12/20 07:01:50;;;;;;;8.50;1.20;;;4.40;99.90;;;;;;5073280;28;20037;-77
2021/12/20 07:04:16;;;;;;;7.22;1.30;;;4.30;99.90;;;;;;5073961;28;20403;-77
2021/12/20 07:06:42;;;;;;;9.00;1.45;;;4.20;99.90;;;;;;5072651;28;20044;-76
2021/12/20 07:09:09;;;;;;;11.02;1.80;;;4.10;99.90;;;;;;5073431;28;20040;-78
2021/12/20 07:11:35;;;;;;;10.05;1.52;;;4.00;99.90;;;;;;5073940;28;20044;-77
2021/12/20 07:14:01;;;;;;;11.07;1.83;;;4.00;99.90;;;;;;5074070;28;20056;-77
2021/12/20 07:16:32;;;;;;;10.95;1.75;;;3.90;99.90;;;;;;5055413;28;20127;-77
2021/12/20 07:18:57;;;;;;;14.20;1.95;;;3.90;99.90;;;;;;5056392;28;20088;-77
2021/12/20 07:21:23;;;;;;;14.25;2.40;;;3.80;99.90;;;;;;5055651;28;20452;-76
2021/12/20 07:23:49;;;;;;;11.27;1.33;;;3.90;99.90;;;;;;5055158;28;20054;-77
2021/12/20 07:26:15;;;;;;;14.05;1.92;;;3.70;99.90;;;;;;5073804;28;20105;-77
2021/12/20 07:28:42;;;;;;;13.35;1.70;;;3.60;99.90;;;;;;5055505;28;20052;-77
2021/12/20 07:31:09;;;;;;;10.05;1.55;;;3.50;99.90;;;;;;5073423;28;20120;-77
2021/12/20 07:33:35;;;;;;;9.38;1.50;;;3.40;99.90;;;;;;5073799;28;20044;-77
2021/12/20 07:36:00;;;;;;;8.13;1.40;;;3.40;99.90;;;;;;5054692;28;20359;-78
2021/12/20 07:38:26;;;;;;;9.27;1.60;;;3.30;99.90;;;;;;5055500;28;20049;-77
2021/12/20 07:40:52;;;;;;;8.45;1.17;;;3.30;99.90;;;;;;5073591;28;20126;-77
2021/12/20 07:43:18;;;;;;;11.80;1.08;;;3.20;99.90;;;;;;5055193;28;20051;-77
2021/12/20 07:45:49;;;;;;;13.55;1.25;;;3.10;99.90;;;;;;5071932;28;20044;-77
2021/12/20 07:48:16;;;;;;;12.05;1.80;;;3.00;99.90;;;;;;5071476;28;20531;-77
2021/12/20 07:50:43;;;;;;;13.80;1.75;;;2.90;99.90;;;;;;5071596;28;20037;-77
2021/12/20 07:53:09;;;;;;;10.70;1.52;;;2.90;99.90;;;;;;5055435;28;20400;-77
2021/12/20 07:55:35;;;;;;;15.25;2.00;;;2.90;99.90;;;;;;5073214;28;20037;-77
2021/12/20 07:58:01;;;;;;;21.88;2.20;;;2.70;99.90;;;;;;5038149;28;20048;-77
2021/12/20 08:00:27;;;;;;;3.63;1.60;;;2.70;99.90;;;;;;5073203;28;20041;-77
2021/12/20 08:02:54;;;;;;;8.68;1.85;;;2.60;99.90;;;;;;5072929;28;20102;-77
2021/12/20 08:05:20;;;;;;;7.85;1.88;;;2.60;99.90;;;;;;5054388;28;20044;-77
2021/12/20 08:07:50;;;;;;;7.65;2.25;;;2.60;99.90;;;;;;5054967;28;20382;-77
2021/12/20 08:10:17;;;;;;;14.50;1.63;;;2.50;99.90;;;;;;5055203;28;20052;-76
2021/12/20 08:12:44;;;;;;;8.43;1.95;;;2.50;99.90;;;;;;5037767;28;20124;-77
2021/12/20 08:15:10;;;;;;;14.55;1.73;;;2.50;99.90;;;;;;5054973;28;20051;-77
2021/12/20 08:17:36;;;;;;;10.85;2.40;;;2.50;99.90;;;;;;5072726;28;20065;-76
2021/12/20 08:20:04;;;;;;;9.57;1.67;;;2.40;99.90;;;;;;5071986;28;20082;-77
2021/12/20 08:22:29;;;;;;;9.45;1.73;;;2.40;99.90;;;;;;5051809;28;20068;-77
2021/12/20 08:24:55;;;;;;;2.70;1.05;;;2.40;99.90;;;;;;5052463;28;20045;-77
2021/12/20 08:27:21;;;;;;;7.45;1.45;;;2.40;99.90;;;;;;5052957;28;20044;-77
2021/12/20 08:29:47;;;;;;;7.78;1.65;;;2.40;99.90;;;;;;5069806;28;20111;-76
2021/12/20 08:32:12;;;;;;;10.13;1.92;;;2.40;99.90;;;;;;5072059;28;20373;-76
2021/12/20 08:34:38;;;;;;;13.40;1.77;;;2.40;99.90;;;;;;5054944;28;20043;-76
2021/12/20 08:37:04;;;;;;;10.02;1.33;;;2.30;99.90;;;;;;5072878;28;20048;-77
2021/12/20 08:39:31;;;;;;;9.77;1.65;;;2.30;99.90;;;;;;5071994;28;20094;-77
2021/12/20 08:41:58;;;;;;;8.77;1.23;;;2.30;99.90;;;;;;5054948;28;20123;-77
2021/12/20 08:44:25;;;;;;;9.45;1.23;;;2.30;99.90;;;;;;5054527;28;20098;-77
2021/12/20 08:46:54;;;;;;;8.60;1.33;;;2.30;99.90;;;;;;5054166;28;20037;-76
2021/12/20 08:49:20;;;;;;;6.50;1.30;;;2.30;99.90;;;;;;5073063;28;20510;-77
2021/12/20 08:51:46;;;;;;;10.85;1.10;;;2.50;99.90;;;;;;5054386;28;20115;-77
2021/12/20 08:54:13;;;;;;;9.60;1.15;;;2.30;99.90;;;;;;5071694;28;20047;-77
2021/12/20 08:56:38;;;;;;;7.57;1.23;;;2.30;99.90;;;;;;5072826;28;20041;-77
2021/12/20 08:59:05;;;;;;;7.85;1.48;;;2.30;99.90;;;;;;5054848;28;20048;-76
2021/12/20 09:01:31;;;;;;;9.15;1.75;;;2.30;99.90;;;;;;5072120;28;20045;-77
2021/12/20 09:03:57;;;;;;;12.60;1.60;;;2.30;99.90;;;;;;5054757;28;20056;-77
2021/12/20 09:06:25;;;;;;;12.25;1.77;;;2.40;99.90;;;;;;5054107;28;20391;-76
2021/12/20 09:08:54;;;;;;;22.40;1.95;;;2.40;99.90;;;;;;5053966;28;20496;-76
2021/12/20 09:11:21;;;;;;;9.73;1.67;;;2.40;99.90;;;;;;5072620;28;20090;-76
2021/12/20 09:13:47;;;;;;;20.17;2.20;;;2.40;99.90;;;;;;5054229;28;20057;-76
2021/12/20 09:16:13;;;;;;;9.95;1.45;;;2.60;99.90;;;;;;5071401;28;20114;-77
2021/12/20 09:18:39;;;;;;;17.15;2.30;;;2.50;99.90;;;;;;5075046;28;20051;-76
2021/12/20 09:21:05;;;;;;;8.80;2.28;;;2.70;99.90;;;;;;5041571;28;20056;-76
2021/12/20 09:23:32;;;;;;;14.63;3.05;;;2.50;99.90;;;;;;5055514;28;20389;-76
2021/12/20 09:25:58;;;;;;;12.63;3.88;;;2.60;99.90;;;;;;5070283;28;20057;-76
2021/12/20 09:28:24;;;;;;;14.95;3.53;;;2.70;99.90;;;;;;5056614;28;20040;-77
2021/12/20 09:30:49;;;;;;;15.73;4.35;;;2.70;99.90;;;;;;5075941;28;20035;-76
2021/12/20 09:33:15;;;;;;;9.40;3.20;;;2.70;99.90;;;;;;5057964;28;20044;-77
2021/12/20 09:35:41;;;;;;;16.60;3.50;;;2.80;99.90;;;;;;5074646;28;20040;-76
2021/12/20 09:38:11;;;;;;;17.92;4.47;;;2.90;99.90;;;;;;5057588;28;20123;-77
2021/12/20 09:40:40;;;;;;;15.80;2.80;;;2.90;99.90;;;;;;5057775;28;20504;-77
2021/12/20 09:43:12;;;;;;;14.95;3.03;;;3.00;99.90;;;;;;5072753;28;20041;-77
2021/12/20 09:45:43;;;;;;;18.30;3.05;;;3.10;99.90;;;;;;5057736;28;20044;-77
2021/12/20 09:48:09;;;;;;;16.67;3.22;;;3.20;99.90;;;;;;5075404;28;20476;-78
2021/12/20 09:50:35;;;;;;;17.48;2.90;;;3.30;99.90;;;;;;5053050;28;20041;-77
2021/12/20 09:53:04;;;;;;;29.25;3.53;;;3.40;99.90;;;;;;5070192;28;20041;-77
2021/12/20 09:55:31;;;;;;;22.33;3.58;;;3.40;99.90;;;;;;5057323;28;20056;-77
2021/12/20 09:58:00;;;;;;;22.85;3.55;;;3.50;99.90;;;;;;5074652;28;20040;-77
2021/12/20 10:00:26;;;;;;;22.52;3.45;;;3.50;99.90;;;;;;5075137;28;20128;-78
2021/12/20 10:02:52;;;;;;;16.33;3.38;;;3.60;99.90;;;;;;5075518;28;20068;-78
2021/12/20 10:05:19;;;;;;;21.33;3.30;;;3.60;99.90;;;;;;5074546;28;20447;-77
2021/12/20 10:07:50;;;;;;;23.30;4.70;;;3.70;99.90;;;;;;5074947;28;20127;-78
2021/12/20 10:10:44;;;;;;;18.95;3.15;;;3.70;99.90;;;;;;5057327;28;20044;-77
2021/12/20 10:13:39;;;;;;;22.35;4.22;;;3.80;99.90;;;;;;5057231;28;20545;-78
2021/12/20 10:16:23;;;;;;;21.75;4.18;;;3.80;99.90;;;;;;5035981;28;20060;-78
2021/12/20 10:18:49;;;;;;;27.23;5.28;;;3.90;99.90;;;;;;5073625;28;20060;-77
2021/12/20 10:21:16;;;;;;;22.77;3.67;;;3.90;99.90;;;;;;5057059;28;20063;-78
2021/12/20 10:23:48;;;;;;;24.67;4.13;;;4.00;99.90;;;;;;5056876;28;20053;-78
2021/12/20 10:26:22;;;;;;;24.55;4.72;;;4.00;99.90;;;;;;5073974;28;20048;-78
2021/12/20 10:28:51;;;;;;;28.55;4.72;;;4.10;99.90;;;;;;5073520;28;20052;-78
2021/12/20 10:31:23;;;;;;;26.33;3.95;;;4.10;99.90;;;;;;5074681;28;20067;-77
2021/12/20 10:33:57;;;;;;;28.70;6.18;;;4.20;99.90;;;;;;5056511;28;20087;-78
2021/12/20 10:36:23;;;;;;;24.67;5.28;;;4.20;99.90;;;;;;5056113;28;20416;-78
2021/12/20 10:38:57;;;;;;;33.17;5.30;;;4.30;99.90;;;;;;5055143;28;20102;-78
2021/12/20 10:41:35;;;;;;;31.73;5.15;;;4.30;99.90;;;;;;5073612;28;20048;-78
2021/12/20 10:44:14;;;;;;;41.40;5.82;;;4.30;99.90;;;;;;5056586;28;20102;-77
2021/12/20 10:46:56;;;;;;;31.13;4.70;;;4.40;99.90;;;;;;5073440;28;20036;-77
2021/12/20 10:49:27;;;;;;;34.03;5.97;;;4.50;99.90;;;;;;5036717;28;20056;-77
2021/12/20 10:51:54;;;;;;;25.02;4.97;;;4.50;99.90;;;;;;5060929;28;20071;-77
2021/12/20 10:54:23;;;;;;;46.70;6.70;;;4.50;99.90;;;;;;5073456;28;20153;-78
2021/12/20 10:57:01;;;;;;;36.50;5.53;;;4.60;99.90;;;;;;5056266;28;20400;-78
2021/12/20 10:59:30;;;;;;;35.70;5.57;;;4.70;99.90;;;;;;5074244;28;20048;-78
2021/12/20 11:04:48;;;;;;;;;;;4.70;99.90;;;;;;5073101;28;20187;-78
2021/12/20 11:09:52;;;;;;;28.20;4.57;;;4.80;99.90;;;;;;5074234;28;20127;-78
2021/12/20 11:12:32;;;;;;;33.40;6.18;;;4.80;99.90;;;;;;5056276;28;20040;-78
2021/12/20 11:15:08;;;;;;;32.10;5.45;;;4.90;99.90;;;;;;5072793;28;20048;-78
2021/12/20 11:17:35;;;;;;;34.20;5.90;;;5.00;99.90;;;;;;5073787;28;20045;-78
2021/12/20 11:20:01;;;;;;;36.72;6.53;;;5.00;99.90;;;;;;5055843;28;20113;-78
2021/12/20 11:22:30;;;;;;;41.10;6.00;;;5.10;99.90;;;;;;5073119;28;20044;-78
2021/12/20 11:25:03;;;;;;;43.80;6.82;;;5.10;99.90;;;;;;5073697;28;20094;-78
2021/12/20 11:27:32;;;;;;;35.15;5.97;;;5.20;99.90;;;;;;5056080;28;20115;-78
2021/12/20 11:30:08;;;;;;;35.22;5.68;;;5.20;99.90;;;;;;5055318;28;20052;-78
2021/12/20 11:32:34;;;;;;;34.70;6.57;;;5.30;99.90;;;;;;5073379;28;20080;-78
2021/12/20 11:35:00;;;;;;;38.90;5.28;;;5.40;99.90;;;;;;5072589;28;20076;-78
2021/12/20 11:37:28;;;;;;;33.47;5.90;;;5.40;99.90;;;;;;5052130;28;20076;-78
2021/12/20 11:39:56;;;;;;;37.78;5.38;;;5.50;99.90;;;;;;5053332;28;20110;-78
2021/12/20 11:42:23;;;;;;;29.48;4.85;;;5.50;99.90;;;;;;5052509;28;20548;-78
2021/12/20 11:44:53;;;;;;;38.80;5.90;;;5.60;99.90;;;;;;5068465;28;20063;-77
2021/12/20 11:47:25;;;;;;;32.58;5.35;;;5.60;99.90;;;;;;5073491;28;20439;-79
2021/12/20 11:49:58;;;;;;;31.15;5.07;;;5.60;99.90;;;;;;5072588;28;20126;-78
2021/12/20 11:52:28;;;;;;;43.40;6.80;;;5.70;99.90;;;;;;5055150;28;20047;-77
2021/12/20 11:54:54;;;;;;;27.02;5.00;;;5.70;99.90;;;;;;5055818;28;20072;-77
2021/12/20 11:57:36;;;;;;;33.08;4.38;;;5.70;99.90;;;;;;5072462;28;20436;-76
2021/12/20 12:00:26;;;;;;;39.75;5.70;;;5.80;99.90;;;;;;5055549;28;20372;-77
2021/12/20 12:02:55;;;;;;;38.28;5.93;;;5.80;99.90;;;;;;5073232;28;20059;-77
2021/12/20 12:05:50;;;;;;;29.35;5.72;;;5.80;99.90;;;;;;5038582;28;20376;-77
2021/12/20 12:08:34;;;;;;;33.30;4.43;;;6.00;99.90;;;;;;5051506;28;20060;-77
2021/12/20 12:11:20;;;;;;;28.20;4.90;;;6.00;99.90;;;;;;5052417;28;20095;-77
2021/12/20 12:14:00;;;;;;;31.55;6.00;;;6.00;99.90;;;;;;5044981;28;20127;-77
2021/12/20 12:17:08;;;;;;;27.77;5.93;;;6.00;99.90;;;;;;5055340;28;20063;-77
2021/12/20 12:19:52;;;;;;;24.60;3.88;;;6.10;99.90;;;;;;4956255;28;20201;-77
2021/12/20 12:22:26;;;;;;;26.17;4.68;;;6.00;99.90;;;;;;5068155;28;20064;-77
2021/12/20 12:24:54;;;;;;;13.23;3.40;;;6.10;99.90;;;;;;5049394;28;20129;-77
2021/12/20 12:27:24;;;;;;;32.42;4.57;;;6.20;99.90;;;;;;5052213;28;20424;-77
2021/12/20 12:30:12;;;;;;;19.55;4.30;;;6.10;99.90;;;;;;5053117;28;20179;-77
2021/12/20 12:32:58;;;;;;;29.33;4.22;;;6.10;99.90;;;;;;5034194;28;20048;-77
2021/12/20 12:35:39;;;;;;;27.80;4.78;;;6.00;99.90;;;;;;5024782;28;20056;-77
2021/12/20 12:38:21;;;;;;;28.17;4.72;;;5.90;99.90;;;;;;5050928;28;20131;-77
2021/12/20 12:41:16;;;;;;;25.25;4.30;;;5.90;99.90;;;;;;5054965;28;20048;-77
2021/12/20 12:44:27;;;;;;;26.50;4.28;;;5.80;99.90;;;;;;5051821;28;20504;-77
2021/12/20 12:47:12;;;;;;;21.40;3.97;;;5.80;99.90;;;;;;5050977;28;20049;-77
2021/12/20 12:49:42;;;;;;;21.33;3.45;;;5.80;99.90;;;;;;5053465;28;20049;-77
2021/12/20 12:52:17;;;;;;;27.67;3.75;;;5.80;99.90;;;;;;5055165;28;20083;-77
2021/12/20 12:54:42;;;;;;;;;;;5.80;99.90;;;;;;5076993;28;20059;-77
2021/12/20 12:57:11;;;;;;;15.70;3.30;;;5.80;99.90;;;;;;5076844;28;19921;-77
2021/12/20 12:59:42;;;;;;;21.98;4.13;;;5.80;99.90;;;;;;5075727;28;20551;-77
2021/12/20 13:02:23;;;;;;;27.85;5.25;;;5.80;99.90;;;;;;5059054;28;20392;-77
2021/12/20 13:04:54;;;;;;;20.90;3.75;;;5.80;99.90;;;;;;5076523;28;20045;-77
2021/12/20 13:07:22;;;;;;;20.65;4.63;;;5.80;99.90;;;;;;5057624;28;20047;-77
2021/12/20 13:09:49;;;;;;;18.35;3.03;;;5.70;99.90;;;;;;5058491;28;20127;-77
2021/12/20 13:17:48;;;;;;;14.73;3.22;;;5.70;99.90;;;;;;5058211;28;20071;-77